sensor_id;sensor_type;location;lat;lon;timestamp;temperature;humidity
45807;DHT22;31507;51.494;7.518;2023-12-20T00:00:24;6.90;99.90
45807;DHT22;31507;51.494;7.518;2023-12-20T00:02:49;6.90;99.90
45807;DHT22;31507;51.494;7.518;2023-12-20T00:05:15;6.90;99.90
45807;DHT22;31507;51.494;7.518;2023-12-20T00:07:43;6.90;99.90
45807;DHT22;31507;51.494;7.518;2023-12-20T00:10:09;6.90;99.90
45807;DHT22;31507;51.494;7.518;2023-12-20T00:12:35;6.80;99.90
45807;DHT22;31507;51.494;7.518;2023-12-20T00:15:01;6.80;99.90
45807;DHT22;31507;51.494;7.518;2023-12-20T00:17:26;6.80;99.90
45807;DHT22;31507;51.494;7.518;2023-12-20T00:19:51;6.80;99.90
45807;DHT22;31507;51.494;7.518;2023-12-20T00:22:19;6.80;99.90
45807;DHT22;31507;51.494;7.518;2023-12-20T00:24:45;6.70;99.90
45807;DHT22;31507;51.494;7.518;2023-12-20T00:27:11;6.80;99.90
45807;DHT22;31507;51.494;7.518;2023-12-20T00:29:36;6.70;99.90
45807;DHT22;31507;51.494;7.518;2023-12-20T00:32:02;6.70;99.90
45807;DHT22;31507;51.494;7.518;2023-12-20T00:34:27;6.70;99.90
45807;DHT22;31507;51.494;7.518;2023-12-20T00:36:53;6.70;99.90
45807;DHT22;31507;51.494;7.518;2023-12-20T00:39:18;6.70;99.90
45807;DHT22;31507;51.494;7.518;2023-12-20T00:41:44;6.70;99.90
45807;DHT22;31507;51.494;7.518;2023-12-20T00:44:09;6.70;99.90
45807;DHT22;31507;51.494;7.518;2023-12-20T00:46:35;6.70;99.90
45807;DHT22;31507;51.494;7.518;2023-12-20T00:49:00;6.80;99.90
45807;DHT22;31507;51.494;7.518;2023-12-20T00:51:25;6.70;99.90
45807;DHT22;31507;51.494;7.518;2023-12-20T00:53:51;6.70;99.90
45807;DHT22;31507;51.494;7.518;2023-12-20T00:56:20;6.70;99.90
45807;DHT22;31507;51.494;7.518;2023-12-20T00:58:45;6.60;99.90
45807;DHT22;31507;51.494;7.518;2023-12-20T01:01:11;6.60;99.90
45807;DHT22;31507;51.494;7.518;2023-12-20T01:03:36;6.60;99.90
45807;DHT22;31507;51.494;7.518;2023-12-20T01:06:02;6.50;99.90
45807;DHT22;31507;51.494;7.518;2023-12-20T01:08:27;6.50;99.90
45807;DHT22;31507;51.494;7.518;2023-12-20T01:10:53;6.50;99.90
45807;DHT22;31507;51.494;7.518;2023-12-20T01:13:18;6.40;99.90
45807;DHT22;31507;51.494;7.518;2023-12-20T01:15:44;6.40;99.90
45807;DHT22;31507;51.494;7.518;2023-12-20T01:18:09;6.30;99.90
45807;DHT22;31507;51.494;7.518;2023-12-20T01:20:35;6.20;99.90
45807;DHT22;31507;51.494;7.518;2023-12-20T01:23:00;6.30;99.90
45807;DHT22;31507;51.494;7.518;2023-12-20T01:25:26;6.20;99.90
45807;DHT22;31507;51.494;7.518;2023-12-20T01:27:51;6.20;99.90
45807;DHT22;31507;51.494;7.518;2023-12-20T01:30:17;6.20;99.90
45807;DHT22;31507;51.494;7.518;2023-12-20T01:32:42;6.20;99.90
45807;DHT22;31507;51.494;7.518;2023-12-20T01:35:08;6.20;99.90
45807;DHT22;31507;51.494;7.518;2023-12-20T01:37:33;6.20;99.90
45807;DHT22;31507;51.494;7.518;2023-12-20T01:39:59;6.20;99.90
45807;DHT22;31507;51.494;7.518;2023-12-20T01:42:25;6.20;99.90
45807;DHT22;31507;51.494;7.518;2023-12-20T01:44:52;6.20;99.90
45807;DHT22;31507;51.494;7.518;2023-12-20T01:47:17;6.20;99.90
45807;DHT22;31507;51.494;7.518;2023-12-20T01:49:43;6.20;99.90
45807;DHT22;31507;51.494;7.518;2023-12-20T01:52:08;6.20;99.90
45807;DHT22;31507;51.494;7.518;2023-12-20T01:54:34;6.20;99.90
45807;DHT22;31507;51.494;7.518;2023-12-20T01:57:01;6.20;99.90
45807;DHT22;31507;51.494;7.518;2023-12-20T01:59:26;6.20;99.90
45807;DHT22;31507;51.494;7.518;2023-12-20T02:01:54;6.20;99.90
45807;DHT22;31507;51.494;7.518;2023-12-20T02:04:19;6.10;99.90
45807;DHT22;31507;51.494;7.518;2023-12-20T02:06:45;6.20;99.90
45807;DHT22;31507;51.494;7.518;2023-12-20T02:09:11;6.10;99.90
45807;DHT22;31507;51.494;7.518;2023-12-20T02:11:37;6.00;99.90
45807;DHT22;31507;51.494;7.518;2023-12-20T02:14:03;6.00;99.90
45807;DHT22;31507;51.494;7.518;2023-12-20T02:16:28;5.90;99.90
45807;DHT22;31507;51.494;7.518;2023-12-20T02:18:54;5.90;99.90
45807;DHT22;31507;51.494;7.518;2023-12-20T02:21:24;5.90;99.90
45807;DHT22;31507;51.494;7.518;2023-12-20T02:23:49;5.90;99.90
45807;DHT22;31507;51.494;7.518;2023-12-20T02:26:15;5.90;99.90
45807;DHT22;31507;51.494;7.518;2023-12-20T02:28:40;5.80;99.90
45807;DHT22;31507;51.494;7.518;2023-12-20T02:31:06;5.80;99.90
45807;DHT22;31507;51.494;7.518;2023-12-20T02:33:31;5.80;99.90
45807;DHT22;31507;51.494;7.518;2023-12-20T02:35:57;5.80;99.90
45807;DHT22;31507;51.494;7.518;2023-12-20T02:38:22;5.80;99.90
45807;DHT22;31507;51.494;7.518;2023-12-20T02:40:48;5.80;99.90
45807;DHT22;31507;51.494;7.518;2023-12-20T02:43:13;5.80;99.90
45807;DHT22;31507;51.494;7.518;2023-12-20T02:45:39;5.70;99.90
45807;DHT22;31507;51.494;7.518;2023-12-20T02:48:04;5.70;99.90
45807;DHT22;31507;51.494;7.518;2023-12-20T02:50:30;5.70;99.90
45807;DHT22;31507;51.494;7.518;2023-12-20T02:52:55;5.70;99.90
45807;DHT22;31507;51.494;7.518;2023-12-20T02:55:21;5.70;99.90
45807;DHT22;31507;51.494;7.518;2023-12-20T02:57:46;5.70;99.90
45807;DHT22;31507;51.494;7.518;2023-12-20T03:00:12;5.70;99.90
45807;DHT22;31507;51.494;7.518;2023-12-20T03:02:38;5.80;99.90
45807;DHT22;31507;51.494;7.518;2023-12-20T03:05:03;5.80;99.90
45807;DHT22;31507;51.494;7.518;2023-12-20T03:07:29;5.80;99.90
45807;DHT22;31507;51.494;7.518;2023-12-20T03:09:54;5.70;99.90
45807;DHT22;31507;51.494;7.518;2023-12-20T03:12:20;5.70;99.90
45807;DHT22;31507;51.494;7.518;2023-12-20T03:17:20;5.70;99.90
45807;DHT22;31507;51.494;7.518;2023-12-20T03:19:46;5.80;99.90
45807;DHT22;31507;51.494;7.518;2023-12-20T03:22:11;5.70;99.90
45807;DHT22;31507;51.494;7.518;2023-12-20T03:24:37;5.70;99.90
45807;DHT22;31507;51.494;7.518;2023-12-20T03:27:02;5.70;99.90
45807;DHT22;31507;51.494;7.518;2023-12-20T03:29:28;5.80;99.90
45807;DHT22;31507;51.494;7.518;2023-12-20T03:31:54;5.70;99.90
45807;DHT22;31507;51.494;7.518;2023-12-20T03:34:19;5.80;99.90
45807;DHT22;31507;51.494;7.518;2023-12-20T03:36:45;5.80;99.90
45807;DHT22;31507;51.494;7.518;2023-12-20T03:39:13;5.80;99.90
45807;DHT22;31507;51.494;7.518;2023-12-20T03:41:38;5.70;99.90
45807;DHT22;31507;51.494;7.518;2023-12-20T03:44:04;5.80;99.90
45807;DHT22;31507;51.494;7.518;2023-12-20T03:46:29;5.70;99.90
45807;DHT22;31507;51.494;7.518;2023-12-20T03:48:55;5.70;99.90
45807;DHT22;31507;51.494;7.518;2023-12-20T03:51:20;5.70;99.90
45807;DHT22;31507;51.494;7.518;2023-12-20T03:53:46;5.70;99.90
45807;DHT22;31507;51.494;7.518;2023-12-20T03:56:12;5.70;99.90
45807;DHT22;31507;51.494;7.518;2023-12-20T03:58:40;5.70;99.90
45807;DHT22;31507;51.494;7.518;2023-12-20T04:01:09;5.70;99.90
45807;DHT22;31507;51.494;7.518;2023-12-20T04:03:36;5.70;99.90
45807;DHT22;31507;51.494;7.518;2023-12-20T04:06:03;5.70;99.90
45807;DHT22;31507;51.494;7.518;2023-12-20T04:08:28;5.60;99.90
45807;DHT22;31507;51.494;7.518;2023-12-20T04:10:54;5.70;99.90
45807;DHT22;31507;51.494;7.518;2023-12-20T04:13:19;5.60;99.90
45807;DHT22;31507;51.494;7.518;2023-12-20T04:15:45;5.60;99.90
45807;DHT22;31507;51.494;7.518;2023-12-20T04:18:10;5.60;99.90
45807;DHT22;31507;51.494;7.518;2023-12-20T04:20:36;5.50;99.90
45807;DHT22;31507;51.494;7.518;2023-12-20T04:23:02;5.50;99.90
45807;DHT22;31507;51.494;7.518;2023-12-20T04:25:28;5.50;99.90
45807;DHT22;31507;51.494;7.518;2023-12-20T04:27:54;5.50;99.90
45807;DHT22;31507;51.494;7.518;2023-12-20T04:30:19;5.50;99.90
45807;DHT22;31507;51.494;7.518;2023-12-20T04:32:45;5.50;99.90
45807;DHT22;31507;51.494;7.518;2023-12-20T04:35:11;5.50;99.90
45807;DHT22;31507;51.494;7.518;2023-12-20T04:37:37;5.50;99.90
45807;DHT22;31507;51.494;7.518;2023-12-20T04:40:02;5.50;99.90
45807;DHT22;31507;51.494;7.518;2023-12-20T04:42:28;5.50;99.90
45807;DHT22;31507;51.494;7.518;2023-12-20T04:44:53;5.40;99.90
45807;DHT22;31507;51.494;7.518;2023-12-20T04:47:20;5.40;99.90
45807;DHT22;31507;51.494;7.518;2023-12-20T04:49:45;5.40;99.90
45807;DHT22;31507;51.494;7.518;2023-12-20T04:52:11;5.40;99.90
45807;DHT22;31507;51.494;7.518;2023-12-20T04:54:38;5.40;99.90
45807;DHT22;31507;51.494;7.518;2023-12-20T04:57:03;5.40;99.90
45807;DHT22;31507;51.494;7.518;2023-12-20T04:59:29;5.40;99.90
45807;DHT22;31507;51.494;7.518;2023-12-20T05:01:54;5.50;99.90
45807;DHT22;31507;51.494;7.518;2023-12-20T05:04:20;5.50;99.90
45807;DHT22;31507;51.494;7.518;2023-12-20T05:06:45;5.50;99.90
45807;DHT22;31507;51.494;7.518;2023-12-20T05:09:12;5.50;99.90
45807;DHT22;31507;51.494;7.518;2023-12-20T05:11:37;5.50;99.90
45807;DHT22;31507;51.494;7.518;2023-12-20T05:14:03;5.50;99.90
45807;DHT22;31507;51.494;7.518;2023-12-20T05:16:28;5.50;99.90
45807;DHT22;31507;51.494;7.518;2023-12-20T05:18:54;5.50;99.90
45807;DHT22;31507;51.494;7.518;2023-12-20T05:21:19;5.50;99.90
45807;DHT22;31507;51.494;7.518;2023-12-20T05:23:45;5.50;99.90
45807;DHT22;31507;51.494;7.518;2023-12-20T05:26:11;5.50;99.90
45807;DHT22;31507;51.494;7.518;2023-12-20T05:28:36;5.50;99.90
45807;DHT22;31507;51.494;7.518;2023-12-20T05:31:02;5.50;99.90
45807;DHT22;31507;51.494;7.518;2023-12-20T05:33:27;5.50;99.90
45807;DHT22;31507;51.494;7.518;2023-12-20T05:35:53;5.40;99.90
45807;DHT22;31507;51.494;7.518;2023-12-20T05:38:18;5.40;99.90
45807;DHT22;31507;51.494;7.518;2023-12-20T05:40:44;5.40;99.90
45807;DHT22;31507;51.494;7.518;2023-12-20T05:43:09;5.40;99.90
45807;DHT22;31507;51.494;7.518;2023-12-20T05:45:35;5.40;99.90
45807;DHT22;31507;51.494;7.518;2023-12-20T05:48:00;5.40;99.90
45807;DHT22;31507;51.494;7.518;2023-12-20T05:50:26;5.40;99.90
45807;DHT22;31507;51.494;7.518;2023-12-20T05:52:51;5.40;99.90
45807;DHT22;31507;51.494;7.518;2023-12-20T05:55:17;5.40;99.90
45807;DHT22;31507;51.494;7.518;2023-12-20T05:57:42;5.40;99.90
45807;DHT22;31507;51.494;7.518;2023-12-20T06:00:08;5.40;99.90
45807;DHT22;31507;51.494;7.518;2023-12-20T06:02:34;5.40;99.90
45807;DHT22;31507;51.494;7.518;2023-12-20T06:05:02;5.30;99.90
45807;DHT22;31507;51.494;7.518;2023-12-20T06:07:29;5.30;99.90
45807;DHT22;31507;51.494;7.518;2023-12-20T06:09:54;5.30;99.90
45807;DHT22;31507;51.494;7.518;2023-12-20T06:12:20;5.30;99.90
45807;DHT22;31507;51.494;7.518;2023-12-20T06:14:45;5.30;99.90
45807;DHT22;31507;51.494;7.518;2023-12-20T06:17:11;5.30;99.90
45807;DHT22;31507;51.494;7.518;2023-12-20T06:19:36;5.30;99.90
45807;DHT22;31507;51.494;7.518;2023-12-20T06:22:02;5.30;99.90
45807;DHT22;31507;51.494;7.518;2023-12-20T06:24:28;5.30;99.90
45807;DHT22;31507;51.494;7.518;2023-12-20T06:26:55;5.40;99.90
45807;DHT22;31507;51.494;7.518;2023-12-20T06:29:20;5.40;99.90
45807;DHT22;31507;51.494;7.518;2023-12-20T06:31:46;5.40;99.90
45807;DHT22;31507;51.494;7.518;2023-12-20T06:34:11;5.40;99.90
45807;DHT22;31507;51.494;7.518;2023-12-20T06:36:37;5.40;99.90
45807;DHT22;31507;51.494;7.518;2023-12-20T06:39:02;5.40;99.90
45807;DHT22;31507;51.494;7.518;2023-12-20T06:41:30;5.40;99.90
45807;DHT22;31507;51.494;7.518;2023-12-20T06:43:55;5.40;99.90
45807;DHT22;31507;51.494;7.518;2023-12-20T06:46:21;5.40;99.90
45807;DHT22;31507;51.494;7.518;2023-12-20T06:48:46;5.40;99.90
45807;DHT22;31507;51.494;7.518;2023-12-20T06:51:13;5.40;99.90
45807;DHT22;31507;51.494;7.518;2023-12-20T06:53:39;5.40;99.90
45807;DHT22;31507;51.494;7.518;2023-12-20T06:56:04;5.40;99.90
45807;DHT22;31507;51.494;7.518;2023-12-20T06:58:30;5.40;99.90
45807;DHT22;31507;51.494;7.518;2023-12-20T07:00:56;5.40;99.90
45807;DHT22;31507;51.494;7.518;2023-12-20T07:03:21;5.40;99.90
45807;DHT22;31507;51.494;7.518;2023-12-20T07:05:47;5.50;99.90
45807;DHT22;31507;51.494;7.518;2023-12-20T07:08:12;5.50;99.90
45807;DHT22;31507;51.494;7.518;2023-12-20T07:10:39;5.40;99.90
45807;DHT22;31507;51.494;7.518;2023-12-20T07:13:05;5.50;99.90
45807;DHT22;31507;51.494;7.518;2023-12-20T07:15:31;5.50;99.90
45807;DHT22;31507;51.494;7.518;2023-12-20T07:17:57;5.50;99.90
45807;DHT22;31507;51.494;7.518;2023-12-20T07:20:25;5.50;99.90
45807;DHT22;31507;51.494;7.518;2023-12-20T07:22:50;5.40;99.90
45807;DHT22;31507;51.494;7.518;2023-12-20T07:25:16;5.50;99.90
45807;DHT22;31507;51.494;7.518;2023-12-20T07:27:41;5.50;99.90
45807;DHT22;31507;51.494;7.518;2023-12-20T07:30:07;5.50;99.90
45807;DHT22;31507;51.494;7.518;2023-12-20T07:32:32;5.50;99.90
45807;DHT22;31507;51.494;7.518;2023-12-20T07:34:58;5.50;99.90
45807;DHT22;31507;51.494;7.518;2023-12-20T07:37:23;5.50;99.90
45807;DHT22;31507;51.494;7.518;2023-12-20T07:39:49;5.60;99.90
45807;DHT22;31507;51.494;7.518;2023-12-20T07:42:14;5.50;99.90
45807;DHT22;31507;51.494;7.518;2023-12-20T07:44:40;5.50;99.90
45807;DHT22;31507;51.494;7.518;2023-12-20T07:47:06;5.50;99.90
45807;DHT22;31507;51.494;7.518;2023-12-20T07:49:32;5.50;99.90
45807;DHT22;31507;51.494;7.518;2023-12-20T07:51:57;5.50;99.90
45807;DHT22;31507;51.494;7.518;2023-12-20T07:54:23;5.60;99.90
45807;DHT22;31507;51.494;7.518;2023-12-20T07:56:50;5.60;99.90
45807;DHT22;31507;51.494;7.518;2023-12-20T07:59:15;5.60;99.90
45807;DHT22;31507;51.494;7.518;2023-12-20T08:01:41;5.60;99.90
45807;DHT22;31507;51.494;7.518;2023-12-20T08:04:07;5.60;99.90
45807;DHT22;31507;51.494;7.518;2023-12-20T08:06:33;5.60;99.90
45807;DHT22;31507;51.494;7.518;2023-12-20T08:09:04;5.60;99.90
45807;DHT22;31507;51.494;7.518;2023-12-20T08:11:30;5.60;99.90
45807;DHT22;31507;51.494;7.518;2023-12-20T08:13:56;5.70;99.90
45807;DHT22;31507;51.494;7.518;2023-12-20T08:16:21;5.70;99.90
45807;DHT22;31507;51.494;7.518;2023-12-20T08:18:47;5.70;99.90
45807;DHT22;31507;51.494;7.518;2023-12-20T08:21:12;5.70;99.90
45807;DHT22;31507;51.494;7.518;2023-12-20T08:23:38;5.70;99.90
45807;DHT22;31507;51.494;7.518;2023-12-20T08:26:07;5.70;99.90
45807;DHT22;31507;51.494;7.518;2023-12-20T08:28:34;5.70;99.90
45807;DHT22;31507;51.494;7.518;2023-12-20T08:30:59;5.70;99.90
45807;DHT22;31507;51.494;7.518;2023-12-20T08:33:25;5.70;99.90
45807;DHT22;31507;51.494;7.518;2023-12-20T08:35:51;5.70;99.90
45807;DHT22;31507;51.494;7.518;2023-12-20T08:38:16;5.80;99.90
45807;DHT22;31507;51.494;7.518;2023-12-20T08:40:44;5.80;99.90
45807;DHT22;31507;51.494;7.518;2023-12-20T08:43:09;5.80;99.90
45807;DHT22;31507;51.494;7.518;2023-12-20T08:45:35;5.80;99.90
45807;DHT22;31507;51.494;7.518;2023-12-20T08:48:00;5.80;99.90
45807;DHT22;31507;51.494;7.518;2023-12-20T08:50:26;5.80;99.90
45807;DHT22;31507;51.494;7.518;2023-12-20T08:52:51;5.80;99.90
45807;DHT22;31507;51.494;7.518;2023-12-20T08:55:17;5.80;99.90
45807;DHT22;31507;51.494;7.518;2023-12-20T08:57:43;5.80;99.90
45807;DHT22;31507;51.494;7.518;2023-12-20T09:00:09;5.90;99.90
45807;DHT22;31507;51.494;7.518;2023-12-20T09:02:37;5.90;99.90
45807;DHT22;31507;51.494;7.518;2023-12-20T09:05:03;5.90;99.90
45807;DHT22;31507;51.494;7.518;2023-12-20T09:07:28;5.90;99.90
45807;DHT22;31507;51.494;7.518;2023-12-20T09:09:57;5.90;99.90
45807;DHT22;31507;51.494;7.518;2023-12-20T09:12:22;5.90;99.90
45807;DHT22;31507;51.494;7.518;2023-12-20T09:14:48;5.90;99.90
45807;DHT22;31507;51.494;7.518;2023-12-20T09:17:14;5.90;99.90
45807;DHT22;31507;51.494;7.518;2023-12-20T09:19:41;5.90;99.90
45807;DHT22;31507;51.494;7.518;2023-12-20T09:22:07;5.90;99.90
45807;DHT22;31507;51.494;7.518;2023-12-20T09:24:32;6.00;99.90
45807;DHT22;31507;51.494;7.518;2023-12-20T09:27:00;6.00;99.90
45807;DHT22;31507;51.494;7.518;2023-12-20T09:29:26;6.00;99.90
45807;DHT22;31507;51.494;7.518;2023-12-20T09:31:52;6.00;99.90
45807;DHT22;31507;51.494;7.518;2023-12-20T09:34:17;6.00;99.90
45807;DHT22;31507;51.494;7.518;2023-12-20T09:36:43;6.10;99.90
45807;DHT22;31507;51.494;7.518;2023-12-20T09:39:12;6.00;99.90
45807;DHT22;31507;51.494;7.518;2023-12-20T09:41:39;6.00;99.90
45807;DHT22;31507;51.494;7.518;2023-12-20T09:44:08;6.10;99.90
45807;DHT22;31507;51.494;7.518;2023-12-20T09:46:33;6.10;99.90
45807;DHT22;31507;51.494;7.518;2023-12-20T09:49:00;6.00;99.90
45807;DHT22;31507;51.494;7.518;2023-12-20T09:51:27;6.10;99.90
45807;DHT22;31507;51.494;7.518;2023-12-20T09:53:54;6.10;99.90
45807;DHT22;31507;51.494;7.518;2023-12-20T09:56:19;6.10;99.90
45807;DHT22;31507;51.494;7.518;2023-12-20T09:58:45;6.10;99.90
45807;DHT22;31507;51.494;7.518;2023-12-20T10:01:11;6.10;99.90
45807;DHT22;31507;51.494;7.518;2023-12-20T10:03:36;6.20;99.90
45807;DHT22;31507;51.494;7.518;2023-12-20T10:06:05;6.20;99.90
45807;DHT22;31507;51.494;7.518;2023-12-20T10:08:31;6.20;99.90
45807;DHT22;31507;51.494;7.518;2023-12-20T10:10:57;6.20;99.90
45807;DHT22;31507;51.494;7.518;2023-12-20T10:13:27;6.20;99.90
45807;DHT22;31507;51.494;7.518;2023-12-20T10:15:54;6.30;99.90
45807;DHT22;31507;51.494;7.518;2023-12-20T10:18:20;6.20;99.90
45807;DHT22;31507;51.494;7.518;2023-12-20T10:20:45;6.20;99.90
45807;DHT22;31507;51.494;7.518;2023-12-20T10:23:11;6.30;99.90
45807;DHT22;31507;51.494;7.518;2023-12-20T10:25:37;6.30;99.90
45807;DHT22;31507;51.494;7.518;2023-12-20T10:28:10;6.20;99.90
45807;DHT22;31507;51.494;7.518;2023-12-20T10:30:36;6.20;99.90
45807;DHT22;31507;51.494;7.518;2023-12-20T10:33:02;6.20;99.90
45807;DHT22;31507;51.494;7.518;2023-12-20T10:35:27;6.30;99.90
45807;DHT22;31507;51.494;7.518;2023-12-20T10:37:55;6.30;99.90
45807;DHT22;31507;51.494;7.518;2023-12-20T10:40:24;6.30;99.90
45807;DHT22;31507;51.494;7.518;2023-12-20T10:42:50;6.30;99.90
45807;DHT22;31507;51.494;7.518;2023-12-20T10:45:16;6.30;99.90
45807;DHT22;31507;51.494;7.518;2023-12-20T10:47:43;6.20;99.90
45807;DHT22;31507;51.494;7.518;2023-12-20T10:50:11;6.20;99.90
45807;DHT22;31507;51.494;7.518;2023-12-20T10:52:37;6.20;99.90
45807;DHT22;31507;51.494;7.518;2023-12-20T10:55:03;6.10;99.90
45807;DHT22;31507;51.494;7.518;2023-12-20T10:57:29;6.20;99.90
45807;DHT22;31507;51.494;7.518;2023-12-20T10:59:55;6.20;99.90
45807;DHT22;31507;51.494;7.518;2023-12-20T11:02:21;6.10;99.90
45807;DHT22;31507;51.494;7.518;2023-12-20T11:04:49;6.20;99.90
45807;DHT22;31507;51.494;7.518;2023-12-20T11:09:43;6.20;99.90
45807;DHT22;31507;51.494;7.518;2023-12-20T11:12:22;6.20;99.90
45807;DHT22;31507;51.494;7.518;2023-12-20T11:14:51;6.20;99.90
45807;DHT22;31507;51.494;7.518;2023-12-20T11:17:17;6.20;99.90
45807;DHT22;31507;51.494;7.518;2023-12-20T11:22:21;6.30;99.90
45807;DHT22;31507;51.494;7.518;2023-12-20T11:24:47;6.30;99.90
45807;DHT22;31507;51.494;7.518;2023-12-20T11:27:13;6.30;99.90
45807;DHT22;31507;51.494;7.518;2023-12-20T11:29:39;6.30;99.90
45807;DHT22;31507;51.494;7.518;2023-12-20T11:34:50;6.30;99.90
45807;DHT22;31507;51.494;7.518;2023-12-20T11:37:15;6.40;99.90
45807;DHT22;31507;51.494;7.518;2023-12-20T11:39:41;6.50;99.90
45807;DHT22;31507;51.494;7.518;2023-12-20T11:42:09;6.50;99.90
45807;DHT22;31507;51.494;7.518;2023-12-20T11:44:36;6.50;99.90
45807;DHT22;31507;51.494;7.518;2023-12-20T11:47:01;6.60;99.90
45807;DHT22;31507;51.494;7.518;2023-12-20T11:49:27;6.60;99.90
45807;DHT22;31507;51.494;7.518;2023-12-20T11:51:54;6.60;99.90
45807;DHT22;31507;51.494;7.518;2023-12-20T11:54:20;6.70;99.90
45807;DHT22;31507;51.494;7.518;2023-12-20T11:56:46;6.70;99.90
45807;DHT22;31507;51.494;7.518;2023-12-20T11:59:11;6.70;99.90
45807;DHT22;31507;51.494;7.518;2023-12-20T12:01:37;6.60;99.90
45807;DHT22;31507;51.494;7.518;2023-12-20T12:04:05;6.50;99.90
45807;DHT22;31507;51.494;7.518;2023-12-20T12:06:31;6.50;99.90
45807;DHT22;31507;51.494;7.518;2023-12-20T12:08:57;6.40;99.90
45807;DHT22;31507;51.494;7.518;2023-12-20T12:11:24;6.30;99.90
45807;DHT22;31507;51.494;7.518;2023-12-20T12:13:50;6.30;99.90
45807;DHT22;31507;51.494;7.518;2023-12-20T12:16:19;6.30;99.90
45807;DHT22;31507;51.494;7.518;2023-12-20T12:18:54;6.30;99.90
45807;DHT22;31507;51.494;7.518;2023-12-20T12:21:20;6.20;99.90
45807;DHT22;31507;51.494;7.518;2023-12-20T12:23:46;6.20;99.90
45807;DHT22;31507;51.494;7.518;2023-12-20T12:26:11;6.20;99.90
45807;DHT22;31507;51.494;7.518;2023-12-20T12:28:37;6.20;99.90
45807;DHT22;31507;51.494;7.518;2023-12-20T12:31:04;6.20;99.90
45807;DHT22;31507;51.494;7.518;2023-12-20T12:33:30;6.20;99.90
45807;DHT22;31507;51.494;7.518;2023-12-20T12:35:56;6.10;99.90
45807;DHT22;31507;51.494;7.518;2023-12-20T12:38:22;6.10;99.90
45807;DHT22;31507;51.494;7.518;2023-12-20T12:40:49;6.00;99.90
45807;DHT22;31507;51.494;7.518;2023-12-20T12:43:15;6.00;99.90
45807;DHT22;31507;51.494;7.518;2023-12-20T12:45:40;5.90;99.90
45807;DHT22;31507;51.494;7.518;2023-12-20T12:48:06;5.90;99.90
45807;DHT22;31507;51.494;7.518;2023-12-20T12:50:31;5.90;99.90
45807;DHT22;31507;51.494;7.518;2023-12-20T12:52:57;5.90;99.90
45807;DHT22;31507;51.494;7.518;2023-12-20T12:55:22;5.90;99.90
45807;DHT22;31507;51.494;7.518;2023-12-20T12:57:48;6.00;99.90
45807;DHT22;31507;51.494;7.518;2023-12-20T13:00:14;6.10;99.90
45807;DHT22;31507;51.494;7.518;2023-12-20T13:02:39;6.10;99.90
45807;DHT22;31507;51.494;7.518;2023-12-20T13:05:08;6.20;99.90
45807;DHT22;31507;51.494;7.518;2023-12-20T13:07:34;6.20;99.90
45807;DHT22;31507;51.494;7.518;2023-12-20T13:09:59;6.30;99.90
45807;DHT22;31507;51.494;7.518;2023-12-20T13:12:26;6.30;99.90
45807;DHT22;31507;51.494;7.518;2023-12-20T13:14:52;6.30;99.90
45807;DHT22;31507;51.494;7.518;2023-12-20T13:17:19;6.30;99.90
45807;DHT22;31507;51.494;7.518;2023-12-20T13:19:45;6.40;99.90
45807;DHT22;31507;51.494;7.518;2023-12-20T13:22:11;6.50;99.90
45807;DHT22;31507;51.494;7.518;2023-12-20T13:24:37;6.60;99.90
45807;DHT22;31507;51.494;7.518;2023-12-20T13:27:03;6.60;99.90
45807;DHT22;31507;51.494;7.518;2023-12-20T13:29:29;6.50;99.90
45807;DHT22;31507;51.494;7.518;2023-12-20T13:31:54;6.50;99.90
45807;DHT22;31507;51.494;7.518;2023-12-20T13:34:20;6.50;99.90
45807;DHT22;31507;51.494;7.518;2023-12-20T13:36:46;6.40;99.90
45807;DHT22;31507;51.494;7.518;2023-12-20T13:39:13;6.40;99.90
45807;DHT22;31507;51.494;7.518;2023-12-20T13:41:40;6.40;99.90
45807;DHT22;31507;51.494;7.518;2023-12-20T13:44:06;6.40;99.90
45807;DHT22;31507;51.494;7.518;2023-12-20T13:46:33;6.40;99.90
45807;DHT22;31507;51.494;7.518;2023-12-20T13:48:58;6.40;99.90
45807;DHT22;31507;51.494;7.518;2023-12-20T13:51:24;6.40;99.90
45807;DHT22;31507;51.494;7.518;2023-12-20T13:53:49;6.40;99.90
45807;DHT22;31507;51.494;7.518;2023-12-20T13:56:15;6.40;99.90
45807;DHT22;31507;51.494;7.518;2023-12-20T13:58:41;6.40;99.90
45807;DHT22;31507;51.494;7.518;2023-12-20T14:01:09;6.40;99.90
45807;DHT22;31507;51.494;7.518;2023-12-20T14:03:35;6.40;99.90
45807;DHT22;31507;51.494;7.518;2023-12-20T14:06:01;6.40;99.90
45807;DHT22;31507;51.494;7.518;2023-12-20T14:08:27;6.30;99.90
45807;DHT22;31507;51.494;7.518;2023-12-20T14:10:53;6.40;99.90
45807;DHT22;31507;51.494;7.518;2023-12-20T14:13:18;6.30;99.90
45807;DHT22;31507;51.494;7.518;2023-12-20T14:15:44;6.30;99.90
45807;DHT22;31507;51.494;7.518;2023-12-20T14:18:09;6.30;99.90
45807;DHT22;31507;51.494;7.518;2023-12-20T14:20:35;6.30;99.90
45807;DHT22;31507;51.494;7.518;2023-12-20T14:23:01;6.30;99.90
45807;DHT22;31507;51.494;7.518;2023-12-20T14:25:27;6.30;99.90
45807;DHT22;31507;51.494;7.518;2023-12-20T14:27:52;6.30;99.90
45807;DHT22;31507;51.494;7.518;2023-12-20T14:30:18;6.30;99.90
45807;DHT22;31507;51.494;7.518;2023-12-20T14:32:43;6.30;99.90
45807;DHT22;31507;51.494;7.518;2023-12-20T14:35:09;6.30;99.90
45807;DHT22;31507;51.494;7.518;2023-12-20T14:37:35;6.30;99.90
45807;DHT22;31507;51.494;7.518;2023-12-20T14:40:05;6.30;99.90
45807;DHT22;31507;51.494;7.518;2023-12-20T14:42:30;6.30;99.90
45807;DHT22;31507;51.494;7.518;2023-12-20T14:44:57;6.30;99.90
45807;DHT22;31507;51.494;7.518;2023-12-20T14:47:23;6.30;99.90
45807;DHT22;31507;51.494;7.518;2023-12-20T14:49:50;6.30;99.90
45807;DHT22;31507;51.494;7.518;2023-12-20T14:52:17;6.30;99.90
45807;DHT22;31507;51.494;7.518;2023-12-20T14:54:42;6.30;99.90
45807;DHT22;31507;51.494;7.518;2023-12-20T14:57:08;6.30;99.90
45807;DHT22;31507;51.494;7.518;2023-12-20T14:59:34;6.30;99.90
45807;DHT22;31507;51.494;7.518;2023-12-20T15:02:00;6.30;99.90
45807;DHT22;31507;51.494;7.518;2023-12-20T15:04:28;6.30;99.90
45807;DHT22;31507;51.494;7.518;2023-12-20T15:06:54;6.30;99.90
45807;DHT22;31507;51.494;7.518;2023-12-20T15:09:20;6.30;99.90
45807;DHT22;31507;51.494;7.518;2023-12-20T15:11:45;6.30;99.90
45807;DHT22;31507;51.494;7.518;2023-12-20T15:14:11;6.30;99.90
45807;DHT22;31507;51.494;7.518;2023-12-20T15:16:40;6.30;99.90
45807;DHT22;31507;51.494;7.518;2023-12-20T15:19:07;6.30;99.90
45807;DHT22;31507;51.494;7.518;2023-12-20T15:21:33;6.30;99.90
45807;DHT22;31507;51.494;7.518;2023-12-20T15:24:05;6.30;99.90
45807;DHT22;31507;51.494;7.518;2023-12-20T15:26:33;6.40;99.90
45807;DHT22;31507;51.494;7.518;2023-12-20T15:28:59;6.40;99.90
45807;DHT22;31507;51.494;7.518;2023-12-20T15:31:26;6.40;99.90
45807;DHT22;31507;51.494;7.518;2023-12-20T15:33:52;6.40;99.90
45807;DHT22;31507;51.494;7.518;2023-12-20T15:36:18;6.40;99.90
45807;DHT22;31507;51.494;7.518;2023-12-20T15:38:44;6.40;99.90
45807;DHT22;31507;51.494;7.518;2023-12-20T15:41:09;6.40;99.90
45807;DHT22;31507;51.494;7.518;2023-12-20T15:43:41;6.50;99.90
45807;DHT22;31507;51.494;7.518;2023-12-20T15:46:09;6.50;99.90